Time;durP1;ratioP1;P1;durP2;ratioP2;P2;SDS_P1;SDS_P2;PMS_P1;PMS_P2;Temp;Humidity;BMP_temperature;BMP_pressure;BME280_temperature;BME280_humidity;BME280_pressure;Samples;Min_cycle;Max_cycle;Signal;HPM_P1;HPM_P2
2021/07/29 02:32:53;;;;;;;32.00;22.92;;;23.30;90.50;;;;;;4957947;29;20487;-82
2021/07/29 02:35:18;;;;;;;31.17;22.48;;;23.40;90.50;;;;;;4957306;28;20023;-77
2021/07/29 02:37:44;;;;;;;32.83;23.63;;;23.50;90.50;;;;;;4956072;28;20075;-77
2021/07/29 02:40:10;;;;;;;29.05;22.70;;;23.60;90.50;;;;;;4955835;28;20110;-77
2021/07/29 02:42:36;;;;;;;33.95;23.77;;;23.70;90.40;;;;;;4955763;28;20020;-77
2021/07/29 02:45:01;;;;;;;32.75;23.65;;;23.80;90.20;;;;;;4955739;28;20106;-77
2021/07/29 02:47:28;;;;;;;32.03;23.50;;;24.00;90.00;;;;;;4954627;28;20032;-77
2021/07/29 02:49:54;;;;;;;29.58;22.98;;;24.20;89.30;;;;;;4955787;28;20110;-77
2021/07/29 02:52:19;;;;;;;29.60;21.15;;;24.40;88.50;;;;;;4955648;28;20118;-77
2021/07/29 02:54:46;;;;;;;27.98;22.50;;;24.70;87.50;;;;;;4955803;28;20496;-76
2021/07/29 02:57:11;;;;;;;31.85;21.23;;;25.00;86.30;;;;;;4955499;28;20030;-76
2021/07/29 02:59:37;;;;;;;35.10;22.52;;;25.30;85.30;;;;;;4954865;28;20031;-77
2021/07/29 03:02:03;;;;;;;35.80;22.88;;;25.60;84.30;;;;;;4955643;28;20066;-77
2021/07/29 03:04:28;;;;;;;28.98;20.85;;;25.90;83.20;;;;;;4955321;28;20363;-77
2021/07/29 03:06:58;;;;;;;27.88;20.58;;;26.20;82.00;;;;;;4955204;28;20059;-76
2021/07/29 03:09:24;;;;;;;26.55;19.77;;;26.60;81.00;;;;;;4955337;28;20042;-77
2021/07/29 03:11:49;;;;;;;28.05;20.30;;;26.90;79.80;;;;;;4955235;28;20485;-78
2021/07/29 03:14:16;;;;;;;29.27;20.10;;;27.30;78.40;;;;;;4955089;28;20050;-77
2021/07/29 03:16:42;;;;;;;27.95;20.23;;;27.70;77.30;;;;;;4955072;28;20015;-78
2021/07/29 03:19:08;;;;;;;30.77;19.45;;;28.20;76.00;;;;;;4954970;28;20472;-78
2021/07/29 03:21:33;;;;;;;23.88;19.38;;;28.60;74.70;;;;;;4955083;28;20023;-78
2021/07/29 03:23:59;;;;;;;26.23;18.88;;;29.10;73.50;;;;;;4955053;28;20450;-78
2021/07/29 03:26:24;;;;;;;27.38;19.23;;;29.50;72.20;;;;;;4954801;28;20027;-78
2021/07/29 03:28:50;;;;;;;23.63;19.15;;;29.90;71.00;;;;;;4954961;28;20070;-78
2021/07/29 03:31:16;;;;;;;23.63;18.30;;;30.40;69.80;;;;;;4970139;28;20477;-78
2021/07/29 03:33:42;;;;;;;25.80;18.63;;;30.80;68.50;;;;;;4993421;28;20054;-77
2021/07/29 03:36:07;;;;;;;25.35;19.70;;;31.30;67.40;;;;;;4993347;28;20023;-78
2021/07/29 03:38:33;;;;;;;22.88;18.45;;;31.70;66.20;;;;;;4975877;28;20025;-75
2021/07/29 03:40:59;;;;;;;27.23;17.50;;;32.10;65.10;;;;;;4975789;28;20027;-75
2021/07/29 03:43:25;;;;;;;24.83;17.42;;;32.60;64.00;;;;;;4992008;28;20034;-76
2021/07/29 03:45:50;;;;;;;23.40;17.17;;;33.00;62.90;;;;;;4992863;28;20033;-76
2021/07/29 03:48:18;;;;;;;20.77;17.33;;;33.60;62.00;;;;;;4993174;28;20034;-76
2021/07/29 03:50:44;;;;;;;26.67;16.35;;;34.00;61.00;;;;;;4992956;28;20054;-76
2021/07/29 03:53:10;;;;;;;23.35;17.15;;;34.50;59.90;;;;;;4993250;28;20081;-76
2021/07/29 03:55:35;;;;;;;28.17;17.95;;;35.00;59.00;;;;;;4975473;28;20035;-76
2021/07/29 03:58:01;;;;;;;20.00;16.13;;;35.40;57.80;;;;;;4992792;28;20484;-76
2021/07/29 04:00:28;;;;;;;23.88;17.05;;;35.90;56.90;;;;;;4992628;28;20034;-76
2021/07/29 04:02:54;;;;;;;23.30;16.92;;;36.30;56.00;;;;;;4992943;28;20105;-75
2021/07/29 04:05:20;;;;;;;22.63;16.77;;;36.70;55.10;;;;;;4992803;28;20508;-76
2021/07/29 04:07:45;;;;;;;24.98;17.33;;;37.00;54.50;;;;;;4992468;28;20022;-76
2021/07/29 04:10:11;;;;;;;20.85;16.48;;;37.40;53.60;;;;;;4992552;28;20035;-77
2021/07/29 04:12:38;;;;;;;30.30;17.05;;;37.80;53.00;;;;;;4992535;28;20023;-76
2021/07/29 04:15:04;;;;;;;22.42;16.83;;;38.10;52.20;;;;;;4992251;28;20384;-76
2021/07/29 04:17:30;;;;;;;21.50;16.73;;;38.40;51.50;;;;;;4992202;28;20022;-77
2021/07/29 04:19:58;;;;;;;31.58;18.45;;;38.80;51.10;;;;;;4992719;28;20358;-79
2021/07/29 04:22:24;;;;;;;32.35;20.20;;;39.00;50.50;;;;;;4992868;28;20429;-75
2021/07/29 04:24:54;;;;;;;30.30;21.02;;;39.20;50.10;;;;;;4992151;28;20022;-76
2021/07/29 04:27:20;;;;;;;21.60;17.23;;;39.40;49.60;;;;;;4992338;28;20464;-75
2021/07/29 04:29:45;;;;;;;22.67;15.48;;;39.80;49.60;;;;;;4974766;28;20034;-76
2021/07/29 04:32:11;;;;;;;28.55;16.17;;;40.10;49.00;;;;;;4992210;28;20421;-76
2021/07/29 04:34:38;;;;;;;21.85;16.90;;;40.50;48.40;;;;;;4992049;28;20452;-77
2021/07/29 04:37:04;;;;;;;27.02;16.83;;;40.80;47.80;;;;;;4974830;28;20104;-74
2021/07/29 04:39:30;;;;;;;29.90;18.05;;;41.00;47.30;;;;;;4992211;28;20019;-75
2021/07/29 04:41:55;;;;;;;34.28;15.75;;;41.20;47.00;;;;;;4991601;28;20053;-75
2021/07/29 04:44:21;;;;;;;28.23;16.98;;;41.40;46.70;;;;;;4991891;28;20022;-75
2021/07/29 04:46:47;;;;;;;22.92;16.92;;;41.70;46.50;;;;;;4991954;28;20057;-75
2021/07/29 04:49:13;;;;;;;23.65;16.25;;;41.90;46.20;;;;;;4974413;28;20037;-76
2021/07/29 04:51:40;;;;;;;22.02;16.77;;;42.20;46.00;;;;;;4991822;28;20054;-77
2021/07/29 04:54:06;;;;;;;30.48;17.52;;;42.40;45.70;;;;;;4992057;28;20460;-76
2021/07/29 04:56:32;;;;;;;27.77;16.63;;;42.80;45.30;;;;;;4991730;28;20054;-77
2021/07/29 04:58:58;;;;;;;22.42;16.60;;;43.10;44.90;;;;;;4991936;28;20058;-76
2021/07/29 05:01:24;;;;;;;26.88;18.33;;;43.40;44.60;;;;;;4991970;28;20042;-76
2021/07/29 05:03:50;;;;;;;31.45;18.10;;;43.80;44.20;;;;;;4992013;28;20026;-77
2021/07/29 05:06:16;;;;;;;19.75;16.42;;;44.00;43.70;;;;;;4991610;28;20412;-77
2021/07/29 05:08:41;;;;;;;28.45;17.40;;;44.30;43.40;;;;;;4991593;28;20132;-76
2021/07/29 05:11:08;;;;;;;24.00;16.95;;;44.50;43.20;;;;;;4973636;28;20438;-76
2021/07/29 05:13:34;;;;;;;24.38;16.20;;;44.70;42.80;;;;;;4991439;28;20065;-79
2021/07/29 05:16:07;;;;;;;24.35;14.95;;;44.80;42.60;;;;;;4991367;28;20026;-81
2021/07/29 05:18:33;;;;;;;25.58;16.60;;;44.90;42.00;;;;;;4992113;28;20026;-81
2021/07/29 05:21:03;;;;;;;21.10;16.38;;;45.10;42.00;;;;;;4991746;28;20041;-81
2021/07/29 05:23:29;;;;;;;18.92;15.32;;;45.20;41.40;;;;;;4994018;28;20031;-81
2021/07/29 05:25:55;;;;;;;22.02;15.45;;;45.30;41.50;;;;;;4995823;28;20041;-82
2021/07/29 05:28:21;;;;;;;22.98;15.40;;;45.40;41.20;;;;;;4996217;28;20718;-81
2021/07/29 05:30:46;;;;;;;21.52;15.80;;;45.60;41.00;;;;;;4995600;28;20047;-80
2021/07/29 05:33:12;;;;;;;21.10;15.90;;;45.70;40.90;;;;;;4978575;28;20349;-81
2021/07/29 05:35:38;;;;;;;20.08;15.73;;;45.80;40.60;;;;;;4995649;28;20070;-81
2021/07/29 05:38:03;;;;;;;28.17;16.08;;;46.00;40.50;;;;;;4995993;28;20128;-81
2021/07/29 05:40:29;;;;;;;28.77;16.00;;;46.20;40.40;;;;;;4995442;28;20033;-81
2021/07/29 05:42:55;;;;;;;23.98;16.17;;;46.40;40.10;;;;;;4996192;28;20456;-81
2021/07/29 05:45:21;;;;;;;22.30;15.73;;;46.50;39.90;;;;;;4995830;28;20026;-82
2021/07/29 05:47:47;;;;;;;27.13;16.38;;;46.80;39.70;;;;;;4995442;28;20072;-82
2021/07/29 05:50:13;;;;;;;34.03;17.38;;;47.10;39.40;;;;;;4995516;28;20447;-80
2021/07/29 05:52:38;;;;;;;29.77;15.30;;;47.40;39.30;;;;;;4995812;28;20050;-81
2021/07/29 05:55:05;;;;;;;26.30;15.30;;;47.80;39.00;;;;;;4995569;28;20045;-81
2021/07/29 05:57:33;;;;;;;31.48;18.80;;;48.10;38.70;;;;;;4995005;28;20023;-81
2021/07/29 05:59:59;;;;;;;28.10;14.93;;;48.50;38.50;;;;;;4995275;28;20046;-80
2021/07/29 06:02:25;;;;;;;18.38;13.50;;;48.80;38.20;;;;;;4995036;28;20059;-81
2021/07/29 06:04:50;;;;;;;22.65;15.48;;;49.10;38.00;;;;;;4977385;28;20460;-82
2021/07/29 06:07:16;;;;;;;21.75;13.65;;;49.30;37.70;;;;;;4994799;28;20018;-81
2021/07/29 06:09:41;;;;;;;20.48;13.60;;;49.40;37.50;;;;;;4995023;28;20480;-81
2021/07/29 06:12:07;;;;;;;21.00;14.05;;;49.50;37.30;;;;;;4995157;28;20065;-81
2021/07/29 06:14:33;;;;;;;26.45;13.68;;;49.60;37.10;;;;;;4995209;28;20023;-82
2021/07/29 06:16:59;;;;;;;19.92;13.88;;;49.80;37.10;;;;;;4995707;28;20054;-81
2021/07/29 06:19:33;;;;;;;21.17;13.60;;;49.80;36.80;;;;;;4995164;28;20030;-82
2021/07/29 06:21:59;;;;;;;19.90;12.68;;;50.00;36.60;;;;;;4995182;28;20034;-77
2021/07/29 06:24:27;;;;;;;25.75;12.23;;;49.90;36.20;;;;;;4994348;28;20031;-80
2021/07/29 06:26:53;;;;;;;21.63;11.65;;;49.90;36.80;;;;;;4994046;28;20033;-79
2021/07/29 06:29:19;;;;;;;21.50;13.30;;;49.90;36.00;;;;;;4994512;28;20034;-78
2021/07/29 06:31:46;;;;;;;20.90;12.98;;;49.80;36.10;;;;;;4994911;28;20046;-82
2021/07/29 06:34:11;;;;;;;24.33;12.45;;;49.80;36.30;;;;;;4978039;28;20034;-82
2021/07/29 06:36:37;;;;;;;19.17;12.32;;;49.90;36.20;;;;;;4995738;28;20026;-83
2021/07/29 06:39:03;;;;;;;19.15;12.73;;;49.80;36.20;;;;;;4996891;28;20030;-79
2021/07/29 06:41:29;;;;;;;26.88;12.15;;;49.80;37.00;;;;;;5012850;28;20037;-78
2021/07/29 06:43:55;;;;;;;22.90;12.00;;;49.80;36.10;;;;;;5014160;28;20030;-80
2021/07/29 06:46:21;;;;;;;24.30;12.68;;;49.90;36.20;;;;;;5013662;28;20108;-80
2021/07/29 06:48:49;;;;;;;23.83;13.50;;;49.90;36.80;;;;;;4996557;28;20052;-79
2021/07/29 06:51:14;;;;;;;19.40;11.93;;;50.10;36.10;;;;;;5013187;28;20034;-80
2021/07/29 06:53:40;;;;;;;26.85;13.52;;;50.00;35.90;;;;;;4996644;28;20068;-79
2021/07/29 06:56:07;;;;;;;26.63;12.48;;;50.00;36.00;;;;;;5013423;28;20018;-75
2021/07/29 06:58:34;;;;;;;23.20;12.15;;;50.10;36.10;;;;;;5013492;28;20372;-74
2021/07/29 07:01:03;;;;;;;16.10;11.93;;;49.80;35.60;;;;;;5013162;28;20080;-75
2021/07/29 07:03:30;;;;;;;24.52;12.60;;;49.70;35.70;;;;;;5013170;28;20030;-74
2021/07/29 07:06:07;;;;;;;21.50;11.90;;;49.60;35.70;;;;;;5012850;28;20026;-74
2021/07/29 07:08:33;;;;;;;22.02;12.60;;;49.50;35.70;;;;;;5013306;28;20084;-74
2021/07/29 07:10:59;;;;;;;24.77;12.65;;;49.40;35.90;;;;;;5013204;28;20057;-74
2021/07/29 07:13:26;;;;;;;19.98;11.98;;;49.20;36.10;;;;;;5013035;28;20098;-74
2021/07/29 07:15:52;;;;;;;26.42;11.30;;;49.20;36.10;;;;;;5013152;28;20050;-74
2021/07/29 07:18:18;;;;;;;23.17;11.90;;;49.00;36.00;;;;;;5013030;28;20014;-74
2021/07/29 07:20:44;;;;;;;18.52;11.50;;;48.80;36.10;;;;;;5013109;28;20107;-74
2021/07/29 07:23:09;;;;;;;23.45;11.70;;;48.60;35.90;;;;;;5013193;28;20396;-73
2021/07/29 07:25:36;;;;;;;16.27;11.40;;;48.50;36.20;;;;;;5012656;28;20040;-79
2021/07/29 07:28:03;;;;;;;22.25;11.75;;;48.40;36.20;;;;;;5012800;28;20029;-75
2021/07/29 07:30:29;;;;;;;22.27;13.23;;;48.10;36.30;;;;;;5012450;28;20030;-74
2021/07/29 07:32:54;;;;;;;27.88;13.98;;;47.90;36.60;;;;;;5012869;28;20092;-73
2021/07/29 07:35:23;;;;;;;31.92;13.98;;;47.80;37.00;;;;;;5012797;28;20022;-73
2021/07/29 07:37:51;;;;;;;20.65;13.65;;;47.50;37.40;;;;;;5011925;28;20072;-73
2021/07/29 07:40:17;;;;;;;32.45;14.35;;;47.30;37.60;;;;;;5005850;28;20056;-74
2021/07/29 07:42:43;;;;;;;22.38;14.15;;;47.00;38.00;;;;;;5009821;28;20025;-74
2021/07/29 07:45:09;;;;;;;24.90;14.43;;;46.80;38.40;;;;;;5008901;28;20603;-73
2021/07/29 07:47:35;;;;;;;22.48;14.20;;;46.60;38.50;;;;;;4992825;28;20042;-74
2021/07/29 07:50:02;;;;;;;31.02;15.40;;;46.50;38.40;;;;;;5011884;28;20054;-72
2021/07/29 07:52:28;;;;;;;21.80;14.98;;;46.20;38.70;;;;;;5012475;28;20463;-74
2021/07/29 07:54:54;;;;;;;24.70;15.85;;;46.10;38.80;;;;;;5011716;28;20547;-74
2021/07/29 07:57:20;;;;;;;26.33;15.02;;;46.00;38.90;;;;;;5011455;28;20162;-73
2021/07/29 07:59:45;;;;;;;28.77;16.30;;;45.80;38.90;;;;;;5012093;28;20065;-74
2021/07/29 08:02:12;;;;;;;25.35;14.77;;;45.70;39.00;;;;;;5012004;28;20026;-73
2021/07/29 08:04:38;;;;;;;24.92;15.43;;;45.40;39.00;;;;;;5011516;28;20030;-74
2021/07/29 08:07:05;;;;;;;24.35;14.90;;;45.10;39.30;;;;;;5012016;28;20037;-74
2021/07/29 08:09:31;;;;;;;29.13;14.30;;;44.90;39.60;;;;;;5011687;28;20022;-74
2021/07/29 08:11:56;;;;;;;26.58;14.57;;;44.70;39.70;;;;;;5011988;28;20026;-72
2021/07/29 08:14:22;;;;;;;27.08;14.48;;;44.50;39.80;;;;;;5011801;28;20078;-74
2021/07/29 08:16:48;;;;;;;28.70;13.48;;;44.30;40.40;;;;;;5011739;28;20026;-74
2021/07/29 08:19:14;;;;;;;25.80;12.80;;;43.90;40.80;;;;;;5011852;28;20033;-74
2021/07/29 08:21:39;;;;;;;21.20;12.48;;;43.50;41.20;;;;;;5011629;28;20066;-73
2021/07/29 08:24:05;;;;;;;20.83;12.95;;;43.20;41.70;;;;;;5011382;28;20029;-73
2021/07/29 08:26:31;;;;;;;22.85;11.85;;;43.00;41.90;;;;;;5011407;28;20093;-73
2021/07/29 08:28:57;;;;;;;19.02;11.30;;;42.70;41.50;;;;;;5011474;28;20037;-74
2021/07/29 08:31:23;;;;;;;21.92;11.98;;;42.40;41.70;;;;;;5011325;28;20042;-73
2021/07/29 08:33:49;;;;;;;25.52;11.57;;;42.20;42.10;;;;;;5011638;28;20384;-73
2021/07/29 08:36:19;;;;;;;21.92;11.00;;;42.20;42.30;;;;;;5010899;28;20030;-74
2021/07/29 08:38:47;;;;;;;21.00;9.80;;;42.10;41.40;;;;;;5011250;28;20180;-73
2021/07/29 08:41:16;;;;;;;19.88;10.30;;;42.00;41.30;;;;;;5011436;28;20436;-73
2021/07/29 08:43:41;;;;;;;28.73;10.65;;;41.80;40.70;;;;;;5011437;28;20025;-73
2021/07/29 08:46:09;;;;;;;18.60;10.90;;;41.80;40.90;;;;;;4993585;28;20053;-73
2021/07/29 08:48:38;;;;;;;22.60;11.10;;;41.70;40.70;;;;;;5011626;28;20365;-74
2021/07/29 08:51:04;;;;;;;25.52;10.75;;;41.60;40.90;;;;;;5012485;28;20034;-79
2021/07/29 08:53:29;;;;;;;16.08;9.90;;;41.50;40.60;;;;;;4993246;28;20529;-79
2021/07/29 08:55:56;;;;;;;16.90;10.40;;;41.40;40.60;;;;;;5010965;28;20034;-79
2021/07/29 08:58:22;;;;;;;21.02;9.93;;;41.40;41.10;;;;;;5012772;28;20022;-78
2021/07/29 09:01:01;;;;;;;21.73;8.45;;;41.30;40.90;;;;;;5015050;28;20030;-77
2021/07/29 09:03:27;;;;;;;18.92;10.68;;;41.00;40.10;;;;;;5015759;28;20030;-78
2021/07/29 09:06:13;;;;;;;19.60;9.30;;;41.10;40.80;;;;;;5015519;28;20030;-79
2021/07/29 09:08:46;;;;;;;20.55;11.68;;;41.20;40.70;;;;;;5015793;28;20111;-79
2021/07/29 09:11:37;;;;;;;21.63;9.45;;;41.20;40.60;;;;;;5015454;28;20038;-79
2021/07/29 09:14:16;;;;;;;21.73;9.35;;;41.30;41.00;;;;;;5015383;28;20510;-78
2021/07/29 09:17:03;;;;;;;16.98;9.30;;;41.40;40.00;;;;;;5015078;28;20056;-78
2021/07/29 09:19:37;;;;;;;21.15;9.50;;;41.40;40.20;;;;;;5014953;28;20026;-79
2021/07/29 09:22:12;;;;;;;21.27;10.02;;;41.30;40.10;;;;;;4998102;28;20054;-78
2021/07/29 09:25:13;;;;;;;14.68;8.48;;;41.30;40.40;;;;;;5014874;28;20026;-80
2021/07/29 09:27:39;;;;;;;;;;;41.30;40.20;;;;;;4935577;29;20126;-79
2021/07/29 09:30:11;;;;;;;15.13;8.70;;;41.30;40.40;;;;;;4998283;28;20435;-79
2021/07/29 09:33:05;;;;;;;17.25;8.23;;;41.30;40.60;;;;;;5014660;28;20074;-78
2021/07/29 09:35:46;;;;;;;13.75;8.68;;;41.20;40.40;;;;;;5014662;28;20476;-79
2021/07/29 09:38:31;;;;;;;;;;;41.10;40.50;;;;;;5014934;28;20372;-80
2021/07/29 09:40:59;;;;;;;16.73;11.32;;;41.10;40.60;;;;;;4996738;28;20264;-78
2021/07/29 09:43:35;;;;;;;17.65;9.68;;;41.10;41.30;;;;;;5014408;28;20041;-78
2021/07/29 09:46:16;;;;;;;22.83;10.27;;;41.00;40.60;;;;;;5014509;28;20104;-79
2021/07/29 09:48:43;;;;;;;25.80;9.15;;;40.80;41.00;;;;;;5014133;28;20317;-80
2021/07/29 09:51:10;;;;;;;14.98;9.40;;;40.50;41.30;;;;;;5013981;28;20026;-79
2021/07/29 09:53:37;;;;;;;15.35;9.90;;;40.40;41.50;;;;;;5014411;28;20026;-79
2021/07/29 09:56:10;;;;;;;19.52;9.18;;;40.20;42.00;;;;;;5014322;28;20399;-78
2021/07/29 09:58:36;;;;;;;20.70;9.25;;;40.20;42.30;;;;;;5016714;28;20101;-79
2021/07/29 10:01:05;;;;;;;21.98;10.00;;;40.20;42.50;;;;;;5015455;28;20736;-79
2021/07/29 10:03:34;;;;;;;18.38;8.57;;;40.20;43.00;;;;;;5013469;28;20041;-79
2021/07/29 10:06:12;;;;;;;18.60;8.48;;;40.10;42.90;;;;;;5014365;28;20030;-80
2021/07/29 10:08:55;;;;;;;17.45;8.70;;;40.00;43.00;;;;;;5013349;28;20070;-78
2021/07/29 10:11:22;;;;;;;25.25;9.75;;;39.90;43.20;;;;;;5013723;28;20053;-78
2021/07/29 10:13:48;;;;;;;12.38;8.43;;;39.90;43.50;;;;;;5013549;28;20352;-79
2021/07/29 10:16:37;;;;;;;15.15;8.55;;;39.90;43.90;;;;;;5013217;28;20022;-80
2021/07/29 10:19:05;;;;;;;21.08;8.45;;;39.90;43.70;;;;;;5013338;28;20025;-80
2021/07/29 10:21:33;;;;;;;21.60;8.27;;;39.90;43.60;;;;;;5028692;28;20384;-80
2021/07/29 10:24:00;;;;;;;16.13;7.20;;;39.90;43.00;;;;;;5014732;28;20075;-79
2021/07/29 10:26:29;;;;;;;17.42;7.55;;;39.90;42.40;;;;;;5012995;28;20022;-80
2021/07/29 10:29:18;;;;;;;12.55;7.10;;;39.70;42.40;;;;;;5013130;28;20029;-81
2021/07/29 10:31:52;;;;;;;23.33;7.18;;;39.40;42.30;;;;;;4984976;28;20476;-79
2021/07/29 10:34:29;;;;;;;16.77;6.72;;;39.30;42.10;;;;;;5013287;28;20034;-79
2021/07/29 10:36:59;;;;;;;11.10;6.05;;;39.10;42.20;;;;;;5013262;28;20550;-79
2021/07/29 10:39:25;;;;;;;12.00;5.97;;;39.00;42.00;;;;;;5013116;28;20219;-79
2021/07/29 10:42:01;;;;;;;16.73;6.70;;;38.90;41.90;;;;;;5012925;28;20030;-80
2021/07/29 10:44:35;;;;;;;16.17;6.38;;;38.80;42.20;;;;;;5013124;28;20033;-78
2021/07/29 10:47:03;;;;;;;12.75;6.30;;;38.70;42.20;;;;;;5013096;28;20034;-77
2021/07/29 10:49:44;;;;;;;11.90;6.00;;;38.60;42.10;;;;;;5013015;28;20026;-75
2021/07/29 10:52:12;;;;;;;9.80;6.35;;;38.50;41.90;;;;;;5013847;28;20025;-76
2021/07/29 10:54:39;;;;;;;11.75;5.75;;;38.40;42.00;;;;;;5012988;28;20075;-76
2021/07/29 10:57:07;;;;;;;15.73;6.03;;;38.30;42.10;;;;;;5012864;28;20052;-76
2021/07/29 10:59:34;;;;;;;11.63;5.88;;;38.10;41.90;;;;;;5013256;28;20026;-76
2021/07/29 11:02:01;;;;;;;11.02;5.60;;;38.00;42.00;;;;;;5013230;28;20130;-76
2021/07/29 11:04:29;;;;;;;13.88;5.13;;;37.80;41.70;;;;;;5013020;28;20514;-76
2021/07/29 11:07:01;;;;;;;16.33;5.30;;;37.60;41.40;;;;;;5013058;28;20028;-76
2021/07/29 11:09:31;;;;;;;13.63;5.75;;;37.50;41.30;;;;;;4995451;28;20484;-75
2021/07/29 11:11:56;;;;;;;12.93;5.80;;;37.40;41.20;;;;;;5012982;28;20029;-76
2021/07/29 11:14:33;;;;;;;10.88;5.82;;;37.20;41.30;;;;;;5013061;28;20022;-75
2021/07/29 11:17:01;;;;;;;13.30;5.90;;;37.10;41.50;;;;;;5012751;28;20065;-75
2021/07/29 11:19:28;;;;;;;11.38;5.70;;;37.00;41.40;;;;;;5012780;28;20080;-76
2021/07/29 11:22:04;;;;;;;17.58;5.38;;;36.80;41.50;;;;;;5012094;28;20022;-76
2021/07/29 11:24:30;;;;;;;13.45;6.15;;;36.80;41.80;;;;;;5012588;28;20024;-76
2021/07/29 11:26:57;;;;;;;7.65;5.45;;;36.80;42.30;;;;;;5012593;28;20097;-77
2021/07/29 11:29:22;;;;;;;17.55;5.35;;;36.70;42.50;;;;;;5012614;28;20097;-75
2021/07/29 11:31:53;;;;;;;11.85;5.13;;;36.70;42.80;;;;;;5012656;28;20128;-75
2021/07/29 11:34:27;;;;;;;10.35;5.03;;;36.70;42.80;;;;;;5012715;28;20100;-76
2021/07/29 11:36:53;;;;;;;10.75;5.22;;;36.70;42.60;;;;;;5011846;28;20110;-76
2021/07/29 11:39:19;;;;;;;13.68;5.15;;;36.60;42.90;;;;;;5012158;28;20022;-76
2021/07/29 11:41:58;;;;;;;12.30;6.18;;;36.60;42.50;;;;;;5012670;28;20033;-75
2021/07/29 11:44:47;;;;;;;14.73;5.28;;;36.60;42.90;;;;;;5012489;28;20025;-76
2021/07/29 11:47:14;;;;;;;10.32;4.90;;;36.60;43.00;;;;;;5012608;28;20033;-76
2021/07/29 11:49:48;;;;;;;12.77;5.45;;;36.60;42.50;;;;;;5012586;28;20026;-76
2021/07/29 11:52:15;;;;;;;10.77;5.50;;;36.50;41.80;;;;;;5012143;28;20049;-75
2021/07/29 11:54:41;;;;;;;20.88;5.63;;;36.50;42.30;;;;;;5012087;28;20026;-76
2021/07/29 11:57:07;;;;;;;10.57;5.55;;;36.40;42.60;;;;;;5012345;28;20022;-75
2021/07/29 11:59:41;;;;;;;15.20;5.85;;;36.30;43.10;;;;;;5012288;28;20028;-75
2021/07/29 12:02:08;;;;;;;14.50;4.70;;;36.30;43.60;;;;;;5012421;28;20105;-75
2021/07/29 12:04:40;;;;;;;13.13;5.65;;;36.10;43.10;;;;;;5012209;28;20464;-75
2021/07/29 12:07:08;;;;;;;8.88;5.57;;;36.00;43.10;;;;;;5011650;28;20383;-76
2021/07/29 12:09:35;;;;;;;17.92;5.82;;;35.90;43.50;;;;;;5011870;28;20018;-76
2021/07/29 12:12:02;;;;;;;11.93;5.43;;;35.80;43.80;;;;;;4994483;28;20401;-76
2021/07/29 12:14:28;;;;;;;10.20;5.55;;;35.70;43.80;;;;;;5011547;28;20029;-76
2021/07/29 12:16:55;;;;;;;14.50;5.85;;;35.60;44.00;;;;;;5011671;28;20044;-76
2021/07/29 12:19:21;;;;;;;8.90;5.80;;;35.50;44.40;;;;;;5011877;28;20014;-76
2021/07/29 12:21:49;;;;;;;11.05;5.75;;;35.50;44.60;;;;;;5011846;28;20024;-76
2021/07/29 12:24:16;;;;;;;17.42;5.90;;;35.50;45.00;;;;;;5011429;28;20026;-76
2021/07/29 12:27:01;;;;;;;14.35;5.95;;;35.50;45.40;;;;;;5011693;28;20411;-76
2021/07/29 12:29:44;;;;;;;18.60;5.45;;;35.50;45.50;;;;;;5011680;28;20495;-76
2021/07/29 12:32:20;;;;;;;18.15;5.78;;;35.50;45.80;;;;;;5011923;28;20558;-76
2021/07/29 12:34:47;;;;;;;19.80;6.18;;;35.50;46.00;;;;;;5011987;28;20022;-77
2021/07/29 12:37:13;;;;;;;15.30;5.65;;;35.50;45.80;;;;;;5011674;28;20033;-76
2021/07/29 12:39:44;;;;;;;16.92;7.22;;;35.40;45.80;;;;;;5011931;28;20101;-74
2021/07/29 12:42:29;;;;;;;16.55;6.40;;;35.30;46.10;;;;;;5012140;28;20785;-75
2021/07/29 12:44:55;;;;;;;16.00;5.93;;;35.20;46.40;;;;;;5011841;28;20079;-76
2021/07/29 12:47:21;;;;;;;14.63;5.57;;;35.10;46.30;;;;;;5011714;28;20022;-75
2021/07/29 12:49:46;;;;;;;19.58;5.90;;;35.10;46.20;;;;;;5011254;28;20026;-75
2021/07/29 12:52:22;;;;;;;13.70;5.28;;;35.00;46.30;;;;;;5011476;28;20026;-75
2021/07/29 12:55:00;;;;;;;16.75;5.85;;;35.00;46.30;;;;;;5011840;28;20341;-73
2021/07/29 12:57:27;;;;;;;11.82;5.18;;;34.90;46.40;;;;;;5011507;28;20022;-75
2021/07/29 12:59:53;;;;;;;21.13;6.07;;;34.80;46.30;;;;;;5011671;28;20523;-76
2021/07/29 13:02:19;;;;;;;16.63;5.28;;;34.70;46.60;;;;;;5011333;28;20113;-75
2021/07/29 13:04:45;;;;;;;17.55;5.35;;;34.70;46.60;;;;;;5011757;28;20464;-75
2021/07/29 13:07:16;;;;;;;12.90;5.40;;;34.60;46.60;;;;;;5011388;28;20030;-76
2021/07/29 13:09:42;;;;;;;;;;;34.50;46.80;;;;;;5011742;28;20518;-74
2021/07/29 13:12:09;;;;;;;11.23;5.50;;;34.50;46.90;;;;;;5011164;28;20000;-76
2021/07/29 13:14:36;;;;;;;13.25;5.57;;;34.50;46.50;;;;;;5011474;28;20101;-75
2021/07/29 13:17:01;;;;;;;17.85;6.53;;;34.40;46.30;;;;;;5011240;28;20026;-75
2021/07/29 13:19:29;;;;;;;11.27;5.30;;;34.40;46.50;;;;;;5011308;28;20026;-75
2021/07/29 13:21:55;;;;;;;13.52;5.25;;;34.40;46.80;;;;;;5011296;28;20371;-75
2021/07/29 13:24:20;;;;;;;15.95;6.53;;;34.30;46.90;;;;;;5011404;28;20101;-75
2021/07/29 13:26:46;;;;;;;12.73;5.13;;;34.30;46.90;;;;;;4993633;28;20021;-75
2021/07/29 13:29:12;;;;;;;14.10;6.60;;;34.30;46.60;;;;;;5010775;28;20099;-75
2021/07/29 13:31:38;;;;;;;15.48;7.38;;;34.30;46.70;;;;;;5010926;28;20065;-75
2021/07/29 13:34:05;;;;;;;17.85;7.00;;;34.20;46.90;;;;;;5011031;28;20064;-75
2021/07/29 13:36:31;;;;;;;13.30;5.88;;;34.20;47.20;;;;;;5009927;28;20104;-75
2021/07/29 13:38:56;;;;;;;16.48;6.10;;;34.20;47.50;;;;;;5010452;28;20452;-75
2021/07/29 13:41:22;;;;;;;12.30;6.00;;;34.20;47.60;;;;;;5010416;28;20352;-74
2021/07/29 13:43:48;;;;;;;18.17;6.28;;;34.20;47.50;;;;;;5011019;28;20410;-76
2021/07/29 13:46:14;;;;;;;16.98;7.47;;;34.10;47.50;;;;;;5013981;28;20038;-75
2021/07/29 13:48:40;;;;;;;15.35;6.30;;;34.10;47.50;;;;;;5014079;28;20026;-75
2021/07/29 13:51:09;;;;;;;16.23;6.22;;;34.10;47.80;;;;;;5013500;28;20029;-75
2021/07/29 13:53:35;;;;;;;19.02;6.72;;;34.00;48.00;;;;;;5013863;28;20018;-74
2021/07/29 13:56:00;;;;;;;14.10;6.32;;;34.00;48.30;;;;;;5013527;28;20025;-75
2021/07/29 13:58:27;;;;;;;12.88;6.80;;;34.00;48.40;;;;;;5013438;28;20057;-75
2021/07/29 14:00:53;;;;;;;13.15;6.13;;;33.90;48.50;;;;;;5013771;28;20026;-73
2021/07/29 14:03:19;;;;;;;19.63;6.07;;;33.90;48.90;;;;;;5013534;28;20026;-75
2021/07/29 14:05:45;;;;;;;17.02;6.00;;;33.90;49.00;;;;;;5013480;28;20445;-76
2021/07/29 14:08:11;;;;;;;18.90;6.78;;;33.80;48.80;;;;;;5013563;28;20026;-74
2021/07/29 14:10:37;;;;;;;16.77;6.85;;;33.70;49.10;;;;;;5012838;28;20088;-76
2021/07/29 14:13:03;;;;;;;14.88;6.88;;;33.70;49.50;;;;;;5013062;28;20050;-76
2021/07/29 14:15:29;;;;;;;16.20;6.32;;;33.60;49.70;;;;;;4995431;28;20056;-76
2021/07/29 14:18:00;;;;;;;14.18;6.25;;;33.70;50.10;;;;;;5013313;28;20100;-76
2021/07/29 14:23:12;;;;;;;12.45;6.60;;;33.60;49.90;;;;;;5013639;28;19913;-76
2021/07/29 14:25:39;;;;;;;11.93;6.75;;;33.50;49.90;;;;;;5013419;28;20025;-76
2021/07/29 14:28:08;;;;;;;19.85;9.07;;;33.50;50.00;;;;;;5013432;28;20368;-75
2021/07/29 14:30:35;;;;;;;22.58;7.20;;;33.40;50.10;;;;;;5012960;28;20506;-76
2021/07/29 14:33:01;;;;;;;21.13;6.63;;;33.40;50.50;;;;;;5028201;28;20026;-76
2021/07/29 14:35:27;;;;;;;20.88;6.75;;;33.40;50.40;;;;;;5013220;28;20030;-75
2021/07/29 14:37:53;;;;;;;21.33;7.45;;;33.40;50.30;;;;;;5013047;28;20112;-76
2021/07/29 14:40:18;;;;;;;16.60;6.97;;;33.30;50.40;;;;;;5012802;28;20046;-75
2021/07/29 14:42:44;;;;;;;9.73;6.35;;;33.40;50.50;;;;;;5013006;28;20026;-74
2021/07/29 14:50:23;;;;;;;16.30;7.47;;;33.30;51.10;;;;;;5012432;28;20037;-76
2021/07/29 14:52:52;;;;;;;23.95;8.00;;;33.30;51.30;;;;;;5012576;28;20452;-77
2021/07/29 14:55:29;;;;;;;14.02;6.93;;;33.30;51.50;;;;;;4994257;28;20028;-76
2021/07/29 14:58:29;;;;;;;18.00;7.28;;;33.20;51.60;;;;;;5013360;28;20657;-76
2021/07/29 16:09:21;;;;;;;17.13;7.25;;;32.30;54.50;;;;;;5011739;28;20026;-75
2021/07/29 16:11:49;;;;;;;17.80;8.38;;;32.30;54.80;;;;;;5011674;28;20050;-75
2021/07/29 16:14:39;;;;;;;12.30;7.13;;;32.30;54.80;;;;;;5011518;28;20452;-76
2021/07/29 16:17:07;;;;;;;17.65;7.57;;;32.20;54.90;;;;;;5012007;28;20903;-76
2021/07/29 16:19:35;;;;;;;24.40;7.63;;;32.10;54.90;;;;;;5011937;28;20380;-76
2021/07/29 16:22:01;;;;;;;12.57;6.80;;;32.10;55.10;;;;;;5011805;28;20033;-75
2021/07/29 16:24:27;;;;;;;15.40;7.40;;;32.10;55.30;;;;;;4994079;28;20391;-76
2021/07/29 16:26:54;;;;;;;19.10;7.63;;;32.00;55.40;;;;;;5011896;28;20087;-76